Terminal Aerodrome Forecast
Issued by NWS

Home | Current Version | Previous Version | Graphics & Text | Print | Product List | Glossary Off
Versions: 1 2 3 4 5 6 7 8 9 10 11 12 13 14 15 16 17 18 19 20 21 22 23

000
FTUS43 KUNR 300603 CCA
TAFGCC
TAF COR
KGCC 300603Z 3006/0106 11005KT P6SM OVC015
     FM301100 05008KT 5SM -RASN OVC008
     FM301500 06010KT P6SM BKN015 OVC035
     FM302000 04016KT P6SM BKN035
     FM010000 VRB05KT P6SM BKN090=

USA.gov is the U.S. government's official web portal to all federal, state and local government web resources and services.